Terminal Aerodrome Forecast
Issued by NWS

Home | Current Version | Previous Version | Text Only | Print | Product List | Glossary On
Versions: 1 2 3 4 5 6 7 8 9 10 11 12 13
000
FTUS45 KGGW 242320
TAFGDV
TAF
KGDV 242320Z 2500/2524 31011G21KT P6SM -SHRA SCT035 BKN070
     FM250100 31009KT P6SM VCSH BKN080
     FM251500 27020G28KT P6SM BKN035=

USA.gov is the U.S. government's official web portal to all federal, state and local government web resources and services.